Aviation Digital Data Service (ADDS)

Output produced by METARs form (1421 UTC 19 August 2019)
found at http://aviationweather.gov/metar/data/
 
METAR text: KRNT 191353Z AUTO 18006KT 4SM BKN019 BKN024 OVC031 17/13 A2998 RMK AO2 SLP158 T01720128
Conditions at: KRNT (RENTON , WA, US) observed 1353 UTC 19 August 2019
Temperature: 17.2°C (63°F)
Dewpoint: 12.8°C (55°F) [RH = 75%]
Pressure (altimeter): 29.98 inches Hg (1015.3 mb)
[Sea-level pressure: 1015.8 mb]
Winds: from the S (180 degrees) at 7 MPH (6 knots; 3.1 m/s)
Visibility: 4 miles ( 6 km)
Ceiling: 1900 feet AGL
Clouds: broken clouds at 1900 feet AGL
broken clouds at 2400 feet AGL
overcast cloud deck at 3100 feet AGL
Weather: automated observation with no human augmentation;
there may or may not be significant weather present at this time

METAR text: KRNT 191253Z AUTO 20003KT 6SM OVC025 17/13 A2997 RMK AO2 SLP153 T01720128
Conditions at: KRNT (RENTON , WA, US) observed 1253 UTC 19 August 2019
Temperature: 17.2°C (63°F)
Dewpoint: 12.8°C (55°F) [RH = 75%]
Pressure (altimeter): 29.97 inches Hg (1015.0 mb)
[Sea-level pressure: 1015.3 mb]
Winds: from the SSW (200 degrees) at 3 MPH (3 knots; 1.5 m/s)
Visibility: 6 miles (10 km)
Ceiling: 2500 feet AGL
Clouds: overcast cloud deck at 2500 feet AGL
Weather: automated observation with no human augmentation;
there may or may not be significant weather present at this time